Time;durP1;ratioP1;P1;durP2;ratioP2;P2;SDS_P1;SDS_P2;PMS_P1;PMS_P2;Temp;Humidity;BMP_temperature;BMP_pressure;BME280_temperature;BME280_humidity;BME280_pressure;Samples;Min_cycle;Max_cycle;Signal;HPM_P1;HPM_P2
2023/01/30 00:02:07;;;;;;;1.52;1.42;;;;;;;21.09;34.42;101310.91;5056429;28;20056;-62
2023/01/30 00:04:33;;;;;;;1.25;1.15;;;;;;;21.13;34.67;101287.53;5060642;28;20426;-62
2023/01/30 00:06:58;;;;;;;1.73;1.00;;;;;;;21.16;34.47;101302.25;5060780;28;20048;-62
2023/01/30 00:09:24;;;;;;;0.98;0.98;;;;;;;21.11;34.56;101297.47;5060851;28;20115;-62
2023/01/30 00:11:49;;;;;;;1.33;1.20;;;;;;;21.16;34.24;101284.53;5061080;28;20155;-62
2023/01/30 00:14:15;;;;;;;1.00;0.95;;;;;;;21.06;34.53;101290.06;5062149;28;20553;-62
2023/01/30 00:16:41;;;;;;;1.13;1.02;;;;;;;21.04;34.56;101289.44;5061447;28;20033;-62
2023/01/30 00:19:07;;;;;;;1.25;1.20;;;;;;;21.05;34.41;101284.94;5065644;28;20043;-62
2023/01/30 00:21:32;;;;;;;1.25;1.15;;;;;;;21.09;34.32;101267.69;5065344;28;20044;-62
2023/01/30 00:23:59;;;;;;;1.23;1.10;;;;;;;20.98;34.78;101260.16;5065523;28;20048;-62
2023/01/30 00:26:25;;;;;;;1.27;1.27;;;;;;;20.95;34.53;101250.75;5068369;28;20045;-62
2023/01/30 00:28:51;;;;;;;1.10;1.00;;;;;;;20.98;34.51;101246.94;5062051;28;20037;-62
2023/01/30 00:31:16;;;;;;;1.33;1.00;;;;;;;20.99;34.58;101257.34;5059495;28;20623;-62
2023/01/30 00:33:42;;;;;;;0.93;0.93;;;;;;;20.97;34.64;101245.28;5056871;28;20058;-62
2023/01/30 00:36:09;;;;;;;1.10;1.10;;;;;;;20.98;34.73;101242.44;5056448;28;20429;-62
2023/01/30 00:38:36;;;;;;;1.35;1.05;;;;;;;20.94;34.73;101235.88;5057336;28;20077;-62
2023/01/30 00:41:02;;;;;;;1.73;0.90;;;;;;;20.90;34.79;101226.66;5058077;28;20041;-62
2023/01/30 00:49:03;;;;;;;1.38;1.20;;;;;;;20.86;34.80;101203.34;5060950;28;20033;-62
2023/01/30 00:51:29;;;;;;;0.90;0.90;;;;;;;20.91;34.81;101201.00;5059191;28;20381;-62
2023/01/30 00:53:54;;;;;;;2.08;1.10;;;;;;;20.86;34.79;101206.84;5058053;28;20047;-62
2023/01/30 00:56:20;;;;;;;1.00;0.95;;;;;;;20.87;34.83;101202.34;5058542;28;20052;-62
2023/01/30 00:58:45;;;;;;;0.88;0.73;;;;;;;20.87;34.83;101213.78;5060464;28;20508;-62
2023/01/30 01:01:11;;;;;;;0.95;0.85;;;;;;;20.87;34.78;101200.53;5072150;28;20074;-62
2023/01/30 01:03:36;;;;;;;0.70;0.70;;;;;;;20.84;34.94;101198.25;5053981;28;20044;-62
2023/01/30 01:06:02;;;;;;;1.27;1.05;;;;;;;20.77;34.90;101199.94;5061821;28;20048;-62
2023/01/30 01:08:28;;;;;;;0.80;0.80;;;;;;;20.78;34.84;101202.41;5061636;28;20040;-62
2023/01/30 01:10:54;;;;;;;1.15;1.02;;;;;;;20.76;34.99;101193.81;5055936;28;20072;-62
2023/01/30 01:13:20;;;;;;;0.90;0.90;;;;;;;20.80;34.86;101189.00;5062979;28;20044;-62
2023/01/30 01:15:46;;;;;;;1.00;1.00;;;;;;;20.74;34.89;101187.88;5059813;28;20033;-62
2023/01/30 01:18:11;;;;;;;0.70;0.70;;;;;;;20.70;35.08;101197.19;5058939;28;20033;-62
2023/01/30 01:20:37;;;;;;;1.05;1.05;;;;;;;20.69;34.96;101176.19;5060816;28;20042;-62
2023/01/30 01:23:02;;;;;;;0.90;0.90;;;;;;;20.68;35.16;101178.00;5067350;28;20037;-62
2023/01/30 01:25:28;;;;;;;0.80;0.80;;;;;;;20.65;35.01;101178.38;5059137;28;20488;-62
2023/01/30 01:27:54;;;;;;;0.90;0.90;;;;;;;20.63;35.14;101182.16;5052102;28;20044;-62
2023/01/30 01:30:19;;;;;;;1.27;1.10;;;;;;;20.69;34.90;101177.00;5063520;28;20040;-62
2023/01/30 01:32:45;;;;;;;0.88;0.88;;;;;;;20.67;35.10;101164.97;5073388;28;20044;-63
2023/01/30 01:35:11;;;;;;;0.90;0.90;;;;;;;20.72;35.13;101170.53;5060497;28;20035;-62
2023/01/30 01:37:37;;;;;;;1.13;1.02;;;;;;;20.67;34.98;101170.25;5057000;28;20601;-62
2023/01/30 01:42:49;;;;;;;0.93;0.80;;;;;;;20.66;35.01;101156.19;5060916;28;20575;-62
2023/01/30 01:45:21;;;;;;;0.73;0.73;;;;;;;20.64;35.10;101150.25;5063565;28;20214;-62
2023/01/30 01:48:10;;;;;;;0.90;0.90;;;;;;;20.60;35.14;101148.94;5059506;28;20048;-63
2023/01/30 01:51:27;;;;;;;0.85;0.85;;;;;;;20.68;35.10;101145.44;5067216;28;20493;-62
2023/01/30 01:54:07;;;;;;;0.98;0.70;;;;;;;20.67;34.89;101147.25;5024660;28;20040;-62
2023/01/30 01:56:34;;;;;;;0.60;0.60;;;;;;;20.61;35.13;101132.06;5068597;28;20063;-62
2023/01/30 01:59:43;;;;;;;0.73;0.73;;;;;;;20.58;35.20;101119.22;5057778;28;20043;-62
2023/01/30 02:02:11;;;;;;;1.15;0.65;;;;;;;20.59;35.18;101135.91;4978118;28;20047;-62
2023/01/30 02:07:36;;;;;;;0.93;0.70;;;;;;;20.57;35.18;101125.50;5057826;28;20089;-62
2023/01/30 02:10:04;;;;;;;0.82;0.80;;;;;;;20.63;35.14;101131.91;5069383;28;20028;-62
2023/01/30 02:12:30;;;;;;;0.90;0.90;;;;;;;20.62;35.25;101131.06;5055151;28;20059;-62
2023/01/30 02:14:57;;;;;;;0.68;0.68;;;;;;;20.58;35.10;101127.13;5057525;28;20056;-62
2023/01/30 02:17:23;;;;;;;1.02;0.93;;;;;;;20.50;35.32;101130.69;5067284;28;20036;-62
2023/01/30 02:20:02;;;;;;;0.55;0.55;;;;;;;20.52;35.34;101135.78;5059656;28;20091;-62
2023/01/30 02:22:55;;;;;;;0.57;0.50;;;;;;;20.48;35.15;101132.69;5060253;28;20445;-62
2023/01/30 02:25:46;;;;;;;0.68;0.68;;;;;;;20.51;35.20;101126.22;5072497;28;20059;-63
2023/01/30 02:28:30;;;;;;;0.60;0.60;;;;;;;20.50;35.40;101130.69;5057252;28;20066;-62
2023/01/30 02:30:58;;;;;;;0.65;0.65;;;;;;;20.49;35.28;101128.22;5059700;28;20489;-62
2023/01/30 02:33:56;;;;;;;0.77;0.77;;;;;;;20.52;35.32;101114.63;5061399;28;20041;-62
2023/01/30 02:36:42;;;;;;;0.52;0.50;;;;;;;20.50;35.29;101122.75;5062445;28;20071;-62
2023/01/30 02:39:33;;;;;;;0.70;0.70;;;;;;;20.52;35.24;101138.44;5060701;28;20043;-62
2023/01/30 02:42:03;;;;;;;0.98;0.80;;;;;;;20.46;35.35;101110.84;5069196;28;20105;-62
2023/01/30 02:44:49;;;;;;;0.60;0.60;;;;;;;20.53;35.20;101095.09;5049162;28;20040;-63
2023/01/30 02:47:31;;;;;;;0.32;0.32;;;;;;;20.51;35.23;101103.22;5060147;28;20036;-62
2023/01/30 02:50:06;;;;;;;0.60;0.60;;;;;;;20.50;35.43;101106.06;5073924;28;20045;-62
2023/01/30 02:52:57;;;;;;;0.65;0.65;;;;;;;20.45;35.28;101101.28;5049931;28;20036;-67
2023/01/30 02:55:28;;;;;;;0.77;0.60;;;;;;;20.42;35.37;101090.22;5056534;28;20040;-66
2023/01/30 02:57:55;;;;;;;0.95;0.60;;;;;;;20.44;35.23;101089.03;5059697;28;20028;-66
2023/01/30 03:01:02;;;;;;;0.70;0.70;;;;;;;20.50;35.21;101090.19;5057573;28;20036;-66
2023/01/30 03:03:28;;;;;;;0.88;0.55;;;;;;;20.43;35.27;101087.41;5060880;28;20074;-66
2023/01/30 03:06:03;;;;;;;1.20;0.85;;;;;;;20.50;35.26;101098.13;5061624;28;20805;-67
2023/01/30 03:09:02;;;;;;;0.50;0.50;;;;;;;20.38;35.41;101091.56;5059202;28;20029;-66
2023/01/30 03:12:03;;;;;;;0.73;0.70;;;;;;;20.36;35.39;101090.91;5075707;28;20093;-66
2023/01/30 03:14:44;;;;;;;0.63;0.63;;;;;;;20.36;35.44;101083.81;5058623;28;20085;-66
2023/01/30 03:17:11;;;;;;;1.23;1.10;;;;;;;20.37;35.56;101098.66;5041758;28;20044;-66
2023/01/30 03:19:37;;;;;;;0.93;0.73;;;;;;;20.33;35.58;101080.69;5062652;28;20127;-66
2023/01/30 03:22:02;;;;;;;0.50;0.50;;;;;;;20.41;35.44;101101.81;5064914;28;20047;-66
2023/01/30 03:24:29;;;;;;;0.55;0.55;;;;;;;20.35;35.47;101087.44;5051142;28;20043;-66
2023/01/30 03:27:05;;;;;;;0.75;0.63;;;;;;;20.39;35.62;101096.66;5058630;28;20759;-66
2023/01/30 03:29:30;;;;;;;0.60;0.60;;;;;;;20.44;35.31;101091.69;5072893;28;20828;-66
2023/01/30 03:31:56;;;;;;;0.82;0.50;;;;;;;20.41;35.53;101084.13;5050851;28;20048;-67
2023/01/30 03:34:22;;;;;;;0.60;0.60;;;;;;;20.42;35.37;101085.75;5054138;28;20044;-66
2023/01/30 03:36:48;;;;;;;0.60;0.60;;;;;;;20.40;35.27;101077.16;5050657;28;20150;-66
2023/01/30 03:39:14;;;;;;;1.05;0.73;;;;;;;20.40;35.47;101095.66;5060669;28;20032;-66
2023/01/30 03:41:40;;;;;;;1.42;0.90;;;;;;;20.39;35.34;101099.31;5058149;28;20033;-66
2023/01/30 03:44:06;;;;;;;1.20;0.93;;;;;;;20.28;35.64;101086.47;5056663;28;20119;-66
2023/01/30 03:46:31;;;;;;;0.80;0.80;;;;;;;20.31;35.44;101094.09;5049715;28;20037;-66
2023/01/30 03:48:57;;;;;;;0.55;0.50;;;;;;;20.24;35.63;101103.72;5058675;28;20048;-66
2023/01/30 03:51:23;;;;;;;0.80;0.80;;;;;;;20.29;35.53;101114.59;5058021;28;20459;-66
2023/01/30 03:53:48;;;;;;;1.02;0.73;;;;;;;20.26;35.52;101127.34;5063939;28;20045;-66
2023/01/30 03:56:14;;;;;;;0.93;0.90;;;;;;;20.29;35.55;101106.69;5063381;28;20410;-66
2023/01/30 03:58:39;;;;;;;0.70;0.70;;;;;;;20.25;35.49;101120.41;5062706;28;20025;-66
2023/01/30 04:01:15;;;;;;;1.27;0.70;;;;;;;20.30;35.39;101118.06;5060480;28;20531;-66
2023/01/30 04:03:40;;;;;;;0.52;0.52;;;;;;;20.30;35.38;101120.72;5073482;28;20032;-66
2023/01/30 04:06:06;;;;;;;0.98;0.80;;;;;;;20.17;35.57;101106.25;5059873;28;20040;-66
2023/01/30 04:08:32;;;;;;;0.90;0.57;;;;;;;20.20;35.63;101115.66;5064524;28;20074;-66
2023/01/30 04:10:58;;;;;;;1.67;0.88;;;;;;;20.22;35.55;101124.22;5077503;28;20524;-66
2023/01/30 04:13:23;;;;;;;1.20;0.90;;;;;;;20.21;35.55;101126.03;5056495;28;20059;-66
2023/01/30 04:15:49;;;;;;;0.82;0.70;;;;;;;20.19;35.51;101121.94;5059575;28;20044;-66
2023/01/30 04:18:33;;;;;;;1.40;0.75;;;;;;;20.29;35.38;101114.59;5061377;28;20056;-66
2023/01/30 04:21:19;;;;;;;1.00;0.95;;;;;;;20.24;35.40;101101.06;5058425;28;20037;-66
2023/01/30 04:23:45;;;;;;;1.05;0.93;;;;;;;20.20;35.45;101100.59;5061031;28;20527;-66
2023/01/30 04:26:12;;;;;;;0.98;0.82;;;;;;;20.11;35.61;101109.59;5077906;28;20033;-66
2023/01/30 04:28:40;;;;;;;1.08;0.90;;;;;;;20.12;35.63;101113.06;5060988;28;20089;-66
2023/01/30 04:31:06;;;;;;;1.45;1.00;;;;;;;20.13;35.52;101120.00;5063914;28;20043;-66
2023/01/30 04:33:55;;;;;;;0.98;0.73;;;;;;;20.17;35.57;101114.19;5062083;28;20110;-66
2023/01/30 04:36:20;;;;;;;0.75;0.68;;;;;;;20.15;35.30;101110.88;5061221;28;20051;-66
2023/01/30 04:38:46;;;;;;;1.10;0.75;;;;;;;20.19;35.40;101119.28;5059154;28;20044;-66
2023/01/30 04:41:11;;;;;;;2.10;1.00;;;;;;;20.11;35.55;101117.53;5058273;28;20040;-66
2023/01/30 04:43:40;;;;;;;1.63;0.90;;;;;;;20.18;35.51;101121.09;5076770;28;20044;-66
2023/01/30 04:46:20;;;;;;;0.65;0.60;;;;;;;20.16;35.49;101117.81;5055854;28;20048;-66
2023/01/30 04:48:45;;;;;;;1.10;0.70;;;;;;;20.15;35.45;101118.81;5059146;28;20036;-66
2023/01/30 04:51:11;;;;;;;0.93;0.70;;;;;;;20.17;35.45;101126.56;5052803;28;20418;-66
2023/01/30 04:53:37;;;;;;;1.73;0.98;;;;;;;20.27;35.23;101123.69;5076994;28;20970;-66
2023/01/30 04:56:03;;;;;;;1.02;0.93;;;;;;;20.18;35.58;101121.09;5077902;28;20041;-66
2023/01/30 04:58:28;;;;;;;0.88;0.77;;;;;;;20.18;35.36;101122.94;5063117;28;20045;-66
2023/01/30 05:00:54;;;;;;;1.55;1.08;;;;;;;20.13;35.52;101141.16;5060705;28;20040;-66
2023/01/30 05:03:20;;;;;;;1.10;1.00;;;;;;;20.16;35.33;101122.28;5056720;28;20045;-66
2023/01/30 05:05:46;;;;;;;0.75;0.55;;;;;;;20.14;35.36;101138.31;5059194;28;20036;-66
2023/01/30 05:08:12;;;;;;;1.20;0.90;;;;;;;20.25;35.19;101136.25;5057981;28;20106;-66
2023/01/30 05:10:40;;;;;;;1.48;1.13;;;;;;;20.17;35.31;101142.44;5062010;28;20047;-66
2023/01/30 05:13:06;;;;;;;1.50;1.00;;;;;;;20.09;35.41;101142.47;5058089;28;20053;-66
2023/01/30 05:15:32;;;;;;;1.33;0.90;;;;;;;20.10;35.48;101137.00;5061135;28;20456;-66
2023/01/30 05:17:58;;;;;;;1.63;0.95;;;;;;;20.19;35.19;101129.88;5056142;28;20032;-66
2023/01/30 05:20:24;;;;;;;1.80;1.05;;;;;;;20.12;35.34;101140.31;5061511;28;20391;-66
2023/01/30 05:22:49;;;;;;;0.82;0.65;;;;;;;20.11;35.33;101149.25;5063647;28;20120;-66
2023/01/30 05:25:15;;;;;;;1.92;0.93;;;;;;;20.14;35.30;101134.84;5064303;28;20033;-66
2023/01/30 05:27:40;;;;;;;1.23;0.80;;;;;;;20.04;35.51;101135.06;5062623;28;20152;-66
2023/01/30 05:30:07;;;;;;;1.33;0.95;;;;;;;20.04;35.49;101140.34;5059824;28;20056;-66
2023/01/30 05:32:32;;;;;;;1.25;1.00;;;;;;;20.07;35.40;101140.00;5057829;28;20025;-66
2023/01/30 05:34:58;;;;;;;1.42;1.00;;;;;;;20.12;35.31;101135.03;5054888;28;20045;-66
2023/01/30 05:37:24;;;;;;;1.15;0.98;;;;;;;20.04;35.48;101128.97;5061115;28;20044;-66
2023/01/30 05:39:49;;;;;;;1.17;1.08;;;;;;;20.06;35.37;101126.97;5055755;28;20025;-66
2023/01/30 05:42:15;;;;;;;0.98;0.88;;;;;;;20.06;35.29;101133.06;5059060;28;20044;-66
2023/01/30 05:44:40;;;;;;;1.48;0.80;;;;;;;20.05;35.46;101149.94;5056544;28;20127;-66
2023/01/30 05:47:06;;;;;;;1.52;0.80;;;;;;;20.11;35.29;101145.78;5060765;28;20059;-66
2023/01/30 05:49:31;;;;;;;2.25;1.30;;;;;;;20.02;35.37;101139.72;5056823;28;20048;-66
2023/01/30 05:51:57;;;;;;;2.03;1.13;;;;;;;20.06;35.40;101137.53;5060155;28;20063;-66
2023/01/30 05:54:22;;;;;;;1.65;1.00;;;;;;;20.03;35.42;101130.78;5058998;28;20032;-66
2023/01/30 05:56:49;;;;;;;1.42;1.17;;;;;;;20.01;35.46;101146.00;5066331;28;20045;-66
2023/01/30 05:59:15;;;;;;;1.52;0.90;;;;;;;20.05;35.32;101146.47;5056818;28;20029;-66
2023/01/30 06:01:41;;;;;;;0.95;0.65;;;;;;;20.01;35.46;101142.53;5062605;28;20459;-66
2023/01/30 06:04:06;;;;;;;1.38;0.85;;;;;;;20.07;35.35;101141.81;5062601;28;20504;-66
2023/01/30 06:06:32;;;;;;;1.58;1.00;;;;;;;19.97;35.35;101135.94;5062100;28;20028;-66
2023/01/30 06:08:57;;;;;;;1.38;0.80;;;;;;;20.00;35.43;101125.84;5061251;28;20534;-66
2023/01/30 06:11:23;;;;;;;2.10;1.17;;;;;;;20.00;35.44;101132.94;5057245;28;20051;-66
2023/01/30 06:13:49;;;;;;;1.80;1.15;;;;;;;19.96;35.31;101113.16;5064103;28;20127;-66
2023/01/30 06:16:16;;;;;;;2.00;1.13;;;;;;;19.99;35.44;101128.66;5062062;28;20037;-66
2023/01/30 06:18:42;;;;;;;1.20;1.10;;;;;;;19.95;35.46;101135.28;5063627;28;20032;-66
2023/01/30 06:21:08;;;;;;;1.08;1.00;;;;;;;19.90;35.54;101135.78;5059055;28;20036;-66
2023/01/30 06:23:34;;;;;;;1.40;1.05;;;;;;;19.92;35.52;101144.38;5064702;28;20118;-66
2023/01/30 06:26:00;;;;;;;1.88;0.98;;;;;;;20.03;35.39;101140.53;5056913;28;20036;-66
2023/01/30 06:28:26;;;;;;;1.55;1.00;;;;;;;19.99;35.44;101134.78;5063400;28;20044;-66
2023/01/30 06:30:52;;;;;;;1.27;1.00;;;;;;;20.01;35.42;101142.53;5060463;28;20097;-66
2023/01/30 06:33:18;;;;;;;1.80;1.25;;;;;;;19.99;35.74;101132.13;5058859;28;20501;-66
2023/01/30 06:35:48;;;;;;;1.15;1.05;;;;;;;19.95;35.69;101127.38;5055617;28;20072;-66
2023/01/30 06:38:13;;;;;;;1.95;1.20;;;;;;;20.03;35.52;101129.94;5059433;28;20043;-66
2023/01/30 06:40:40;;;;;;;1.33;1.00;;;;;;;20.01;35.51;101114.28;5060951;28;20048;-66
2023/01/30 06:43:06;;;;;;;1.80;1.10;;;;;;;20.06;35.42;101122.50;5060591;28;20060;-66
2023/01/30 06:45:32;;;;;;;1.27;1.00;;;;;;;20.08;35.32;101122.31;5056217;28;20037;-65
2023/01/30 06:47:57;;;;;;;1.27;1.17;;;;;;;20.08;35.49;101124.97;5057660;28;20640;-66
2023/01/30 06:50:26;;;;;;;2.00;1.10;;;;;;;20.05;35.54;101130.59;5053564;28;20039;-66
2023/01/30 06:52:53;;;;;;;1.70;1.05;;;;;;;19.98;35.47;101134.94;5057141;28;20637;-66
2023/01/30 06:55:21;;;;;;;1.00;0.90;;;;;;;20.01;35.51;101132.78;5063626;28;20360;-66
2023/01/30 06:57:47;;;;;;;1.50;1.40;;;;;;;20.06;35.49;101134.88;5057894;28;20028;-66
2023/01/30 07:00:18;;;;;;;1.80;1.13;;;;;;;20.05;35.46;101146.47;5058981;28;20857;-66
2023/01/30 07:02:44;;;;;;;1.15;0.90;;;;;;;20.01;35.53;101161.84;5056341;28;20032;-67
2023/01/30 07:05:10;;;;;;;1.35;0.85;;;;;;;20.07;35.52;101152.41;5056825;28;20471;-66
2023/01/30 07:07:36;;;;;;;1.65;1.00;;;;;;;20.01;35.51;101151.28;5051356;28;20032;-65
2023/01/30 07:10:04;;;;;;;1.65;0.98;;;;;;;20.14;35.36;101158.66;5059668;28;20067;-66
2023/01/30 07:12:30;;;;;;;1.48;1.10;;;;;;;21.26;33.39;101158.00;5059470;28;20053;-66
2023/01/30 07:14:55;;;;;;;1.30;0.82;;;;;;;22.21;32.13;101162.53;5056475;28;20074;-66
2023/01/30 07:17:21;;;;;;;1.33;1.23;;;;;;;22.44;31.97;101157.91;5054867;28;20055;-66
2023/01/30 07:19:47;;;;;;;1.30;1.02;;;;;;;22.48;31.85;101153.84;5056529;28;20174;-66
2023/01/30 07:22:13;;;;;;;1.95;1.10;;;;;;;22.56;31.63;101155.53;5058466;28;20402;-66
2023/01/30 07:24:39;;;;;;;1.33;0.90;;;;;;;22.57;31.67;101162.50;5054013;28;20098;-66
2023/01/30 07:27:07;;;;;;;1.63;1.00;;;;;;;22.66;31.36;101171.16;5056773;28;20522;-66
2023/01/30 07:29:34;;;;;;;1.10;0.88;;;;;;;22.79;31.44;101160.63;5053382;28;20032;-66
2023/01/30 07:31:59;;;;;;;1.40;1.02;;;;;;;22.66;31.67;101166.69;5058196;28;20040;-66
2023/01/30 07:34:25;;;;;;;1.58;1.17;;;;;;;22.61;31.73;101183.16;5058095;28;20028;-66
2023/01/30 07:36:50;;;;;;;2.05;1.13;;;;;;;22.56;31.74;101176.78;5065574;28;20032;-66
2023/01/30 07:39:16;;;;;;;1.85;0.93;;;;;;;22.44;31.92;101176.47;5059955;28;20490;-67
2023/01/30 07:41:41;;;;;;;2.00;1.17;;;;;;;22.36;32.14;101173.91;5060154;28;20044;-66
2023/01/30 07:44:09;;;;;;;1.77;1.10;;;;;;;22.28;32.21;101179.34;5058654;28;20532;-65
2023/01/30 07:46:35;;;;;;;1.63;1.23;;;;;;;22.22;32.42;101172.13;5059935;28;20048;-65
2023/01/30 07:49:04;;;;;;;1.52;1.20;;;;;;;22.15;32.39;101174.72;5056982;28;20756;-66
2023/01/30 07:51:30;;;;;;;1.27;1.10;;;;;;;22.10;32.86;101174.47;5057463;28;20032;-65
2023/01/30 07:53:55;;;;;;;1.27;1.10;;;;;;;22.07;32.81;101168.69;5058038;28;20040;-65
2023/01/30 07:56:21;;;;;;;1.70;1.10;;;;;;;22.05;32.92;101171.53;5055723;28;20099;-65
2023/01/30 07:58:47;;;;;;;1.52;0.95;;;;;;;21.99;32.96;101177.53;5056457;28;20063;-65
2023/01/30 08:01:13;;;;;;;1.23;1.00;;;;;;;21.95;32.63;101173.63;5056677;28;20537;-65
2023/01/30 08:03:39;;;;;;;1.48;1.10;;;;;;;21.86;33.08;101170.25;5060116;28;20115;-65
2023/01/30 08:06:05;;;;;;;0.98;0.82;;;;;;;21.75;33.32;101177.84;5060149;28;20968;-65
2023/01/30 08:08:30;;;;;;;1.83;1.33;;;;;;;21.73;33.08;101179.88;5062972;28;20056;-65
2023/01/30 08:10:56;;;;;;;1.48;1.25;;;;;;;21.77;33.43;101186.44;5058437;28;20036;-65
2023/01/30 08:13:21;;;;;;;1.67;1.13;;;;;;;21.70;33.10;101183.69;5061727;28;20098;-65
2023/01/30 08:15:47;;;;;;;1.70;1.10;;;;;;;21.22;34.07;101182.38;5053815;28;20049;-66
2023/01/30 08:18:12;;;;;;;2.47;1.48;;;;;;;21.41;33.72;101189.81;5052496;28;20098;-66
2023/01/30 08:20:38;;;;;;;1.83;1.15;;;;;;;21.41;33.79;101184.53;5057489;28;20083;-66
2023/01/30 08:23:04;;;;;;;1.45;1.08;;;;;;;21.40;33.72;101188.16;5058850;28;20505;-68
2023/01/30 08:25:29;;;;;;;1.83;1.08;;;;;;;21.32;33.78;101162.56;5053495;28;20135;-66
2023/01/30 08:27:55;;;;;;;1.45;1.00;;;;;;;21.42;33.53;101175.56;5049132;28;20364;-67
2023/01/30 08:30:21;;;;;;;1.63;1.05;;;;;;;21.26;33.90;101173.91;5055802;28;20048;-67
2023/01/30 08:32:47;;;;;;;1.30;1.05;;;;;;;21.18;34.19;101170.47;5057580;28;20187;-67
2023/01/30 08:35:13;;;;;;;1.98;1.30;;;;;;;21.01;34.29;101180.41;5060665;28;20036;-67
2023/01/30 08:37:39;;;;;;;1.88;1.27;;;;;;;21.05;34.32;101185.16;5064286;28;20972;-67
2023/01/30 08:40:06;;;;;;;2.65;1.27;;;;;;;20.97;34.26;101177.28;5060218;28;20862;-67
2023/01/30 08:42:32;;;;;;;1.85;1.20;;;;;;;20.88;34.42;101190.75;5060983;28;20052;-67
2023/01/30 08:44:57;;;;;;;1.52;1.00;;;;;;;20.85;34.65;101181.38;5062259;28;20434;-68
2023/01/30 08:47:23;;;;;;;2.05;1.35;;;;;;;20.85;34.43;101184.00;5059606;28;20037;-67
2023/01/30 08:49:50;;;;;;;1.92;1.25;;;;;;;20.83;34.45;101172.78;5063296;28;20032;-67
2023/01/30 08:52:16;;;;;;;1.83;1.20;;;;;;;20.89;34.58;101168.59;5061206;28;20040;-66
2023/01/30 08:54:41;;;;;;;2.22;1.60;;;;;;;20.78;34.62;101167.16;5061972;28;20459;-67
2023/01/30 08:57:07;;;;;;;2.00;1.15;;;;;;;20.86;34.48;101168.94;5061240;28;20043;-67
2023/01/30 08:59:32;;;;;;;1.55;1.13;;;;;;;20.79;34.55;101171.47;5062188;28;20113;-67
2023/01/30 09:01:58;;;;;;;2.08;1.30;;;;;;;20.76;34.67;101174.47;5059687;28;20045;-67
2023/01/30 09:04:25;;;;;;;2.15;1.27;;;;;;;20.81;34.37;101180.03;5061919;28;20044;-67
2023/01/30 09:06:51;;;;;;;2.08;1.20;;;;;;;20.73;34.69;101180.13;5064856;28;20123;-67
2023/01/30 09:09:17;;;;;;;1.77;1.13;;;;;;;20.74;34.74;101176.47;5064594;28;20071;-67
2023/01/30 09:11:42;;;;;;;2.70;1.30;;;;;;;20.73;34.56;101173.00;5059616;28;20123;-67
2023/01/30 09:14:09;;;;;;;2.03;1.52;;;;;;;21.35;33.81;101146.31;5059328;28;20049;-67
2023/01/30 09:16:34;;;;;;;1.88;1.02;;;;;;;21.45;33.22;101155.81;5058894;28;20028;-67
2023/01/30 09:18:59;;;;;;;1.10;0.95;;;;;;;21.38;33.59;101166.34;5064468;28;20364;-68
2023/01/30 09:21:25;;;;;;;1.70;1.17;;;;;;;21.32;33.65;101173.16;5062081;28;20036;-68
2023/01/30 09:23:50;;;;;;;1.10;1.00;;;;;;;21.44;33.23;101164.78;5059088;28;20024;-66
2023/01/30 09:26:16;;;;;;;1.38;1.10;;;;;;;21.22;33.86;101154.06;5057921;28;20041;-67
2023/01/30 09:28:41;;;;;;;1.40;1.20;;;;;;;21.41;33.53;101176.56;5059387;28;20048;-67
2023/01/30 09:31:07;;;;;;;2.85;1.23;;;;;;;21.22;33.91;101182.38;5057468;28;20036;-68
2023/01/30 09:33:33;;;;;;;1.00;0.80;;;;;;;21.13;33.97;101177.13;5059511;28;20044;-67
2023/01/30 09:35:58;;;;;;;1.45;1.17;;;;;;;20.72;34.79;101170.53;5058206;28;20052;-68
2023/01/30 09:38:24;;;;;;;2.25;1.20;;;;;;;20.72;34.91;101184.59;5060965;28;20036;-67
2023/01/30 09:40:58;;;;;;;2.30;1.40;;;;;;;20.91;34.34;101174.53;5055570;28;20044;-67
2023/01/30 09:43:27;;;;;;;1.50;1.38;;;;;;;20.95;34.15;101170.50;5057576;28;20416;-67
2023/01/30 09:46:06;;;;;;;1.58;1.05;;;;;;;21.13;33.96;101179.78;5059991;28;20047;-68
2023/01/30 09:48:38;;;;;;;2.13;1.30;;;;;;;21.08;33.95;101189.28;5057880;28;20467;-68
2023/01/30 09:51:38;;;;;;;2.35;1.30;;;;;;;21.15;33.84;101195.47;5061449;28;20035;-67
2023/01/30 09:54:21;;;;;;;;;;;;;;;20.91;34.33;101185.94;5058051;28;20639;-68
2023/01/30 09:56:55;;;;;;;1.83;1.50;;;;;;;20.92;34.22;101177.00;5062942;28;20373;-68
2023/01/30 09:59:29;;;;;;;1.40;1.08;;;;;;;20.86;34.45;101196.25;5057551;28;20374;-67
2023/01/30 10:02:04;;;;;;;2.53;1.45;;;;;;;21.08;34.01;101197.22;5063328;28;20132;-68
2023/01/30 10:04:34;;;;;;;2.33;1.40;;;;;;;21.27;33.61;101199.38;5060305;28;20090;-68
2023/01/30 10:07:15;;;;;;;;;;;;;;;21.35;33.36;101209.06;5062739;28;20590;-68
2023/01/30 10:10:15;;;;;;;2.22;1.60;;;;;;;21.42;33.10;101205.53;5055372;28;20003;-67
2023/01/30 10:13:13;;;;;;;1.75;1.48;;;;;;;21.14;33.73;101217.66;5060817;28;20047;-67
2023/01/30 10:15:55;;;;;;;3.28;1.45;;;;;;;21.02;33.93;101232.34;5060778;28;20244;-68
2023/01/30 10:18:43;;;;;;;1.67;1.30;;;;;;;20.99;33.97;101230.84;5061371;28;20036;-68
2023/01/30 10:21:40;;;;;;;1.85;1.60;;;;;;;20.63;34.73;101221.84;5055597;28;20056;-68
2023/01/30 10:24:23;;;;;;;2.28;1.40;;;;;;;20.60;34.77;101212.44;5056150;28;20087;-67
2023/01/30 10:26:49;;;;;;;2.08;1.30;;;;;;;20.78;34.44;101196.28;5060381;28;20165;-68
2023/01/30 10:29:19;;;;;;;2.05;1.30;;;;;;;21.03;33.74;101197.75;5062375;28;20381;-67
2023/01/30 10:31:51;;;;;;;1.92;1.25;;;;;;;20.77;34.32;101237.00;5059933;28;20387;-68
2023/01/30 10:34:31;;;;;;;2.03;1.40;;;;;;;20.84;34.25;101245.06;5059489;28;20032;-68
2023/01/30 10:37:15;;;;;;;;;;;;;;;20.78;34.44;101262.44;5058246;28;20602;-68
2023/01/30 10:39:41;;;;;;;2.38;1.40;;;;;;;20.73;34.45;101297.38;5054435;28;20534;-68
2023/01/30 10:42:10;;;;;;;2.17;1.55;;;;;;;20.69;34.45;101280.22;5053384;28;20032;-68
2023/01/30 10:44:38;;;;;;;1.98;1.40;;;;;;;20.86;34.04;101315.34;5054490;28;20056;-68
2023/01/30 10:47:29;;;;;;;1.38;1.20;;;;;;;21.09;33.63;101278.28;5054662;28;20495;-68
2023/01/30 10:50:00;;;;;;;1.60;1.15;;;;;;;21.27;33.44;101268.25;5053619;28;20028;-68
2023/01/30 10:52:40;;;;;;;2.03;1.50;;;;;;;21.11;33.51;101274.47;5052426;28;20024;-68
2023/01/30 10:55:23;;;;;;;2.38;1.40;;;;;;;21.28;33.39;101277.03;5057689;28;20489;-67
2023/01/30 10:57:57;;;;;;;1.77;1.33;;;;;;;20.91;34.00;101267.19;5053392;28;20094;-67
2023/01/30 11:00:41;;;;;;;1.75;1.20;;;;;;;21.00;33.95;101260.81;5053430;28;20029;-67
2023/01/30 11:03:37;;;;;;;2.67;1.45;;;;;;;20.80;34.22;101271.88;5058504;28;20055;-67
2023/01/30 11:06:22;;;;;;;1.75;1.08;;;;;;;20.78;34.16;101262.44;5062372;28;20332;-67
2023/01/30 11:08:48;;;;;;;1.60;1.20;;;;;;;20.88;34.03;101270.19;5061166;28;21085;-67
2023/01/30 11:11:49;;;;;;;2.20;1.27;;;;;;;20.76;34.33;101275.03;5058964;28;20040;-67
2023/01/30 11:14:15;;;;;;;1.50;1.20;;;;;;;20.75;34.29;101270.75;5051559;28;20064;-67
2023/01/30 11:16:50;;;;;;;1.50;1.00;;;;;;;20.65;34.28;101267.53;5056684;28;20170;-67
2023/01/30 11:19:23;;;;;;;1.98;1.17;;;;;;;20.77;34.10;101258.97;5051993;28;20082;-67
2023/01/30 11:21:51;;;;;;;1.85;1.27;;;;;;;20.67;34.35;101262.88;5057343;28;20062;-67
2023/01/30 11:24:19;;;;;;;2.13;1.42;;;;;;;20.65;34.36;101265.69;5054571;28;20044;-67
2023/01/30 11:26:46;;;;;;;1.25;1.05;;;;;;;20.65;34.24;101280.75;5056328;28;20060;-68
2023/01/30 11:29:14;;;;;;;1.90;1.35;;;;;;;20.68;34.33;101296.28;5056773;28;20055;-67
2023/01/30 11:31:40;;;;;;;1.67;1.10;;;;;;;21.23;33.19;101274.88;5056185;28;20407;-67
2023/01/30 11:34:14;;;;;;;1.15;1.00;;;;;;;21.87;31.91;101290.38;5056943;28;20036;-67
2023/01/30 11:36:40;;;;;;;1.00;0.93;;;;;;;22.07;31.59;101294.16;5059535;28;20068;-67
2023/01/30 11:39:12;;;;;;;1.55;0.85;;;;;;;22.05;31.73;101300.66;5056702;28;20123;-67
2023/01/30 11:41:42;;;;;;;1.73;1.30;;;;;;;21.96;32.09;101310.50;5058299;28;20032;-67
2023/01/30 11:44:09;;;;;;;2.17;1.00;;;;;;;21.73;32.39;101317.72;5055079;28;21050;-67
2023/01/30 11:46:38;;;;;;;1.85;1.40;;;;;;;21.72;32.10;101324.81;5056289;28;20025;-67
2023/01/30 11:49:12;;;;;;;1.73;1.20;;;;;;;21.67;32.66;101329.84;5052620;28;20040;-68
2023/01/30 11:51:41;;;;;;;2.38;1.48;;;;;;;21.56;32.64;101333.75;5056427;28;20425;-67